Time;durP1;ratioP1;P1;durP2;ratioP2;P2;SDS_P1;SDS_P2;PMS_P1;PMS_P2;Temp;Humidity;BMP_temperature;BMP_pressure;BME280_temperature;BME280_humidity;BME280_pressure;Samples;Min_cycle;Max_cycle;Signal;HPM_P1;HPM_P2
2022/01/09 00:00:29;;;;;;;0.85;0.70;;;;;;;-144.19;100.00;75831.28;5076089;28;20058;-86
2022/01/09 00:02:57;;;;;;;1.10;0.80;;;;;;;-144.19;100.00;75835.22;5077099;28;20052;-86
2022/01/09 00:05:23;;;;;;;;;;;;;;;-144.19;100.00;75821.44;5078448;28;20067;-86
2022/01/09 00:07:50;;;;;;;1.10;0.80;;;;;;;-144.19;100.00;75815.56;5077560;28;19927;-87
2022/01/09 00:10:18;;;;;;;1.15;0.77;;;;;;;-144.19;100.00;75819.47;5077605;28;20056;-85
2022/01/09 00:12:44;;;;;;;1.73;0.80;;;;;;;-144.19;100.00;75811.63;5076847;28;20050;-85
2022/01/09 00:15:11;;;;;;;0.50;0.50;;;;;;;-144.19;100.00;75817.50;5078229;28;20421;-88
2022/01/09 00:17:38;;;;;;;;;;;;;;;-144.19;100.00;75819.47;5095873;28;20517;-84
2022/01/09 00:20:05;;;;;;;1.85;0.80;;;;;;;-144.19;100.00;75803.75;5095425;28;19995;-86
2022/01/09 00:22:43;;;;;;;0.68;0.60;;;;;;;-144.19;100.00;75807.69;5076672;28;20056;-85
2022/01/09 00:25:11;;;;;;;0.65;0.60;;;;;;;-144.19;100.00;75803.75;5077122;28;20048;-88
2022/01/09 00:27:38;;;;;;;1.02;0.75;;;;;;;-144.19;100.00;75813.59;5095033;28;20056;-86
2022/01/09 00:30:07;;;;;;;1.63;1.13;;;;;;;-144.19;100.00;75809.66;5079543;28;20078;-85
2022/01/09 00:32:33;;;;;;;1.55;1.13;;;;;;;-144.19;100.00;75819.47;5076656;28;20399;-87
2022/01/09 00:35:00;;;;;;;1.45;1.20;;;;;;;-144.19;100.00;75799.81;5077359;28;20058;-89
2022/01/09 00:37:26;;;;;;;2.45;1.50;;;;;;;-144.19;100.00;75815.56;5076966;28;20450;-87
2022/01/09 00:39:53;;;;;;;3.97;1.40;;;;;;;-144.19;100.00;75815.56;5077021;28;20052;-85
2022/01/09 00:42:19;;;;;;;2.03;1.75;;;;;;;-144.19;100.00;75815.56;5076598;28;20054;-85
2022/01/09 00:44:46;;;;;;;4.22;2.30;;;;;;;-144.19;100.00;75807.69;5077867;28;20051;-87
2022/01/09 00:47:12;;;;;;;2.92;2.00;;;;;;;-144.19;100.00;75803.75;5096375;28;20215;-87
2022/01/09 00:49:39;;;;;;;3.17;1.88;;;;;;;-144.19;100.00;75819.47;5077282;28;20056;-86
2022/01/09 00:52:05;;;;;;;4.78;2.67;;;;;;;-144.19;100.00;75815.56;5095750;28;20497;-87
2022/01/09 00:54:32;;;;;;;3.38;2.60;;;;;;;-144.19;100.00;75835.22;5076722;28;20058;-87
2022/01/09 00:56:58;;;;;;;3.33;2.40;;;;;;;-144.19;100.00;75837.19;5060192;28;20071;-86
2022/01/09 00:59:25;;;;;;;2.77;2.00;;;;;;;-144.19;100.00;75835.22;5056402;28;20044;-85
2022/01/09 01:01:51;;;;;;;4.47;2.27;;;;;;;-144.19;100.00;75837.19;5069457;28;20656;-86
2022/01/09 01:04:18;;;;;;;2.28;2.03;;;;;;;-144.19;100.00;75845.06;5095653;28;20055;-87
2022/01/09 01:06:45;;;;;;;3.15;2.33;;;;;;;-144.19;100.00;75839.16;5077065;28;20044;-87
2022/01/09 01:09:11;;;;;;;3.78;2.78;;;;;;;-144.19;100.00;75843.09;5094829;28;20490;-87
2022/01/09 01:11:37;;;;;;;3.77;2.60;;;;;;;-144.19;100.00;75854.91;5076483;28;20059;-87
2022/01/09 01:14:04;;;;;;;2.83;2.13;;;;;;;-144.19;100.00;75858.84;5076391;28;20059;-86
2022/01/09 01:16:31;;;;;;;3.60;2.77;;;;;;;-144.19;100.00;75843.09;5076384;28;20329;-88
2022/01/09 01:18:57;;;;;;;2.72;2.33;;;;;;;-144.19;100.00;75858.84;5077091;28;20768;-87
2022/01/09 01:21:24;;;;;;;2.83;2.50;;;;;;;-144.19;100.00;75862.78;5094435;28;20055;-85
2022/01/09 01:23:51;;;;;;;3.22;2.85;;;;;;;-144.19;100.00;75872.63;5076460;28;20485;-86
2022/01/09 01:26:18;;;;;;;3.05;2.58;;;;;;;-144.19;100.00;75864.75;5076592;28;20048;-86
2022/01/09 01:28:44;;;;;;;4.43;3.42;;;;;;;-144.19;100.00;75874.59;5076448;28;20059;-89
2022/01/09 01:31:11;;;;;;;6.55;3.60;;;;;;;-144.19;100.00;75874.59;5076449;28;20452;-87
2022/01/09 01:33:37;;;;;;;3.25;2.78;;;;;;;-144.19;100.00;75886.41;5092767;28;20052;-85
2022/01/09 01:36:04;;;;;;;3.00;2.70;;;;;;;-144.19;100.00;75878.53;5094745;28;20055;-84
2022/01/09 01:38:31;;;;;;;3.95;3.13;;;;;;;-144.19;100.00;75886.41;5075485;28;20296;-88
2022/01/09 01:40:58;;;;;;;3.63;3.25;;;;;;;-144.19;100.00;75882.47;5076136;28;20044;-88
2022/01/09 01:43:25;;;;;;;4.80;2.95;;;;;;;-144.19;100.00;75886.41;5091706;28;20098;-85
2022/01/09 01:45:52;;;;;;;3.40;2.90;;;;;;;-144.19;100.00;75882.47;5073580;28;20052;-87
2022/01/09 01:48:19;;;;;;;6.63;3.27;;;;;;;-144.19;100.00;75882.47;5073434;28;20055;-86
2022/01/09 01:50:48;;;;;;;4.10;3.10;;;;;;;-144.19;100.00;75882.47;5073767;28;20282;-88
2022/01/09 01:53:17;;;;;;;4.22;3.00;;;;;;;-144.19;100.00;75892.31;5073034;28;20051;-86
2022/01/09 01:55:45;;;;;;;3.25;2.80;;;;;;;-144.19;100.00;75880.50;5073795;28;20050;-86
2022/01/09 01:58:11;;;;;;;3.33;3.03;;;;;;;-144.19;100.00;75886.41;5090901;28;20073;-85
2022/01/09 02:00:42;;;;;;;4.57;3.00;;;;;;;-144.19;100.00;75894.28;5073418;28;20047;-87
2022/01/09 02:03:09;;;;;;;3.50;3.20;;;;;;;-144.19;100.00;75894.28;5090983;28;20370;-86
2022/01/09 02:05:37;;;;;;;4.22;3.17;;;;;;;-144.19;100.00;75890.34;5073825;28;20139;-87
2022/01/09 02:08:04;;;;;;;4.82;3.70;;;;;;;-144.19;100.00;75890.34;5091287;28;20067;-84
2022/01/09 02:10:30;;;;;;;;;;;;;;;-144.19;100.00;75888.38;5073521;28;20048;-87
2022/01/09 02:12:57;;;;;;;4.55;3.15;;;;;;;-144.19;100.00;75898.22;5072943;28;19920;-88
2022/01/09 02:15:27;;;;;;;3.53;3.20;;;;;;;-144.19;100.00;75904.13;5074282;28;20048;-87
2022/01/09 02:17:53;;;;;;;4.20;3.10;;;;;;;-144.19;100.00;75910.00;5090888;28;20052;-87
2022/01/09 02:20:20;;;;;;;3.60;3.17;;;;;;;-144.19;100.00;75898.22;5073467;28;20081;-88
2022/01/09 02:22:46;;;;;;;5.43;3.30;;;;;;;-144.19;100.00;75902.16;5090262;28;20055;-87
2022/01/09 02:25:14;;;;;;;4.40;2.83;;;;;;;-144.19;100.00;75904.13;5072958;28;20512;-87
2022/01/09 02:27:41;;;;;;;3.38;3.08;;;;;;;-144.19;100.00;75902.16;5073451;28;20079;-88
2022/01/09 02:30:08;;;;;;;4.15;3.30;;;;;;;-144.19;100.00;75906.06;5090879;28;20044;-87
2022/01/09 02:32:35;;;;;;;4.00;3.13;;;;;;;-144.19;100.00;75902.16;5072459;28;20054;-87
2022/01/09 02:35:02;;;;;;;3.83;3.20;;;;;;;-144.19;100.00;75915.91;5073760;28;20462;-87
2022/01/09 02:37:28;;;;;;;3.92;3.38;;;;;;;-144.19;100.00;75917.88;5072992;28;20052;-85
2022/01/09 02:39:54;;;;;;;3.83;3.37;;;;;;;-144.19;100.00;75929.69;5073194;28;20044;-88
2022/01/09 02:42:28;;;;;;;3.92;3.53;;;;;;;-144.19;100.00;75929.69;5090682;28;20055;-87
2022/01/09 02:44:55;;;;;;;3.55;3.22;;;;;;;-144.19;100.00;75927.72;5073132;28;20048;-87
2022/01/09 02:47:22;;;;;;;4.00;3.60;;;;;;;-144.19;100.00;75933.63;5091166;28;20063;-87
2022/01/09 02:49:53;;;;;;;;;;;;;;;-144.19;100.00;75935.59;5091650;28;20048;-87
2022/01/09 02:55:11;;;;;;;5.30;4.25;;;;;;;-144.19;100.00;75925.75;5090855;28;20055;-86
2022/01/09 02:57:50;;;;;;;4.50;3.22;;;;;;;-144.19;100.00;75933.63;5072236;28;20425;-87
2022/01/09 03:00:26;;;;;;;3.90;3.30;;;;;;;-144.19;100.00;75957.25;5091164;28;20440;-87
2022/01/09 03:02:52;;;;;;;4.95;3.08;;;;;;;-144.19;100.00;75953.31;5072589;28;20059;-87
2022/01/09 03:05:19;;;;;;;2.83;2.42;;;;;;;-144.19;100.00;75971.03;5090882;28;20086;-86
2022/01/09 03:07:46;;;;;;;2.60;2.40;;;;;;;-144.19;100.00;75976.94;5090648;28;20048;-86
2022/01/09 03:10:15;;;;;;;3.05;2.03;;;;;;;-144.19;100.00;75980.88;5072250;28;20075;-87
2022/01/09 03:12:42;;;;;;;2.10;1.90;;;;;;;-144.19;100.00;75984.81;5090719;28;20048;-86
2022/01/09 03:15:09;;;;;;;3.08;2.47;;;;;;;-144.19;100.00;75996.63;5090848;28;20063;-87
2022/01/09 03:17:35;;;;;;;;;;;;;;;-144.19;100.00;75992.69;5091263;28;20052;-86
2022/01/09 03:20:05;;;;;;;2.38;1.95;;;;;;;-144.19;100.00;75996.63;5072838;28;19955;-87
2022/01/09 03:22:31;;;;;;;2.38;2.03;;;;;;;-144.19;100.00;75988.75;5090273;28;20131;-84
2022/01/09 03:24:57;;;;;;;2.17;1.97;;;;;;;-144.19;100.00;75984.81;5073085;28;20056;-86
2022/01/09 03:27:24;;;;;;;3.40;2.80;;;;;;;-144.19;100.00;75961.19;5072780;28;20294;-87
2022/01/09 03:29:50;;;;;;;3.07;2.20;;;;;;;-144.19;100.00;75984.81;5072918;28;20329;-85
2022/01/09 03:32:17;;;;;;;3.58;2.65;;;;;;;-144.19;100.00;75976.94;5090178;28;20055;-87
2022/01/09 03:34:43;;;;;;;2.83;2.33;;;;;;;-144.19;100.00;75984.81;5092879;28;20540;-86
2022/01/09 03:37:10;;;;;;;3.08;2.55;;;;;;;-144.19;100.00;75976.94;5076443;28;20044;-89
2022/01/09 03:39:37;;;;;;;2.80;2.47;;;;;;;-144.19;100.00;75982.84;5076670;28;20051;-86
2022/01/09 03:42:04;;;;;;;4.47;3.30;;;;;;;-144.19;100.00;75969.06;5075906;28;20052;-87
2022/01/09 03:44:30;;;;;;;6.20;4.20;;;;;;;-144.19;100.00;75971.03;5090688;28;20305;-86
2022/01/09 03:46:57;;;;;;;6.93;4.77;;;;;;;-144.19;100.00;75967.09;5076399;28;20508;-85
2022/01/09 03:49:24;;;;;;;8.68;4.70;;;;;;;-144.19;100.00;75969.06;5093896;28;20298;-87
2022/01/09 03:51:52;;;;;;;4.20;3.08;;;;;;;-144.19;100.00;75969.06;5075719;28;20052;-84
2022/01/09 03:54:21;;;;;;;4.70;3.15;;;;;;;-144.19;100.00;75967.09;5093668;28;20062;-86
2022/01/09 03:56:49;;;;;;;6.47;4.95;;;;;;;-144.19;100.00;75957.25;5062910;28;20061;-87
2022/01/09 03:59:16;;;;;;;6.38;4.65;;;;;;;-144.19;100.00;75961.19;5094119;28;20044;-86
2022/01/09 04:01:43;;;;;;;;;;;;;;;-144.19;100.00;75961.19;5094430;28;20059;-87
2022/01/09 04:04:11;;;;;;;10.18;6.05;;;;;;;-144.19;100.00;75953.31;5075247;28;19927;-87
2022/01/09 04:06:46;;;;;;;10.27;6.18;;;;;;;-144.19;100.00;75957.25;5093973;28;20458;-87
2022/01/09 04:09:19;;;;;;;14.48;8.25;;;;;;;-144.19;100.00;75941.50;5093821;28;20060;-85
2022/01/09 04:11:49;;;;;;;23.55;11.32;;;;;;;-144.19;100.00;75965.13;5075953;28;20052;-86
2022/01/09 04:14:16;;;;;;;13.80;7.85;;;;;;;-144.19;100.00;75951.34;5075247;28;20048;-86
2022/01/09 04:16:42;;;;;;;31.50;16.00;;;;;;;-144.19;100.00;75947.41;5076013;28;20048;-86
2022/01/09 04:19:13;;;;;;;26.52;12.65;;;;;;;-144.19;100.00;75939.53;5093925;28;20044;-85
2022/01/09 04:21:42;;;;;;;12.13;7.13;;;;;;;-144.19;100.00;75949.38;5076383;28;20051;-87
2022/01/09 04:24:09;;;;;;;21.35;11.27;;;;;;;-144.19;100.00;75949.38;5093178;28;20066;-87
2022/01/09 04:26:37;;;;;;;14.05;8.70;;;;;;;-144.19;100.00;75941.50;5094591;28;20464;-88
2022/01/09 04:29:04;;;;;;;16.42;8.63;;;;;;;-144.19;100.00;75921.81;5075721;28;20052;-87
2022/01/09 04:31:33;;;;;;;13.35;7.25;;;;;;;-144.19;100.00;75929.69;5093636;28;20062;-85
2022/01/09 04:34:00;;;;;;;20.75;11.63;;;;;;;-144.19;100.00;75945.44;5093252;28;20052;-86
2022/01/09 04:36:26;;;;;;;15.83;8.10;;;;;;;-144.19;100.00;75953.31;5077241;28;20052;-87
2022/01/09 04:38:54;;;;;;;8.32;5.72;;;;;;;-144.19;100.00;75951.34;5075569;28;20502;-88
2022/01/09 04:41:21;;;;;;;17.30;9.80;;;;;;;-144.19;100.00;75959.22;5093551;28;20498;-87
2022/01/09 04:43:49;;;;;;;17.77;8.68;;;;;;;-144.19;100.00;75949.38;5074840;28;20052;-86
2022/01/09 04:46:22;;;;;;;25.70;13.55;;;;;;;-144.19;100.00;75957.25;5075022;28;20497;-85
2022/01/09 04:48:52;;;;;;;24.13;13.13;;;;;;;-144.19;100.00;75982.84;5076173;28;20056;-85
2022/01/09 04:51:18;;;;;;;20.48;11.70;;;;;;;-144.19;100.00;75988.75;5075112;28;20044;-85
2022/01/09 04:53:45;;;;;;;16.73;10.05;;;;;;;-144.19;100.00;75990.72;5074517;28;20044;-86
2022/01/09 04:56:11;;;;;;;14.68;9.10;;;;;;;-144.19;100.00;75996.63;5074525;28;20043;-87
2022/01/09 04:58:37;;;;;;;19.70;11.67;;;;;;;-144.19;100.00;75992.69;5075004;28;20422;-85
2022/01/09 05:01:04;;;;;;;22.10;11.63;;;;;;;-144.19;100.00;75996.63;5092822;28;20289;-87
2022/01/09 05:03:31;;;;;;;27.08;15.25;;;;;;;-144.19;100.00;76000.53;5092522;28;20123;-86
2022/01/09 05:05:58;;;;;;;;;;;;;;;-144.19;100.00;75996.63;5075652;28;20050;-84
2022/01/09 05:08:24;;;;;;;20.02;11.25;;;;;;;-144.19;100.00;76008.41;5092593;28;19928;-85
2022/01/09 05:10:50;;;;;;;10.90;5.93;;;;;;;-144.19;100.00;76004.47;5092351;28;20398;-87
2022/01/09 05:13:17;;;;;;;8.13;6.37;;;;;;;-144.19;100.00;75992.69;5073996;28;20294;-86
2022/01/09 05:15:44;;;;;;;10.05;6.85;;;;;;;-144.19;100.00;75996.63;5093804;28;20052;-85
2022/01/09 05:18:14;;;;;;;8.88;6.95;;;;;;;-144.19;100.00;75994.66;5093534;28;20063;-84
2022/01/09 05:20:42;;;;;;;8.15;6.43;;;;;;;-144.19;100.00;75996.63;5094148;28;20044;-87
2022/01/09 05:23:09;;;;;;;15.75;10.25;;;;;;;-144.19;100.00;75992.69;5074926;28;20062;-85
2022/01/09 05:25:35;;;;;;;17.70;10.65;;;;;;;-144.19;100.00;76016.28;5092449;28;20056;-86
2022/01/09 05:28:02;;;;;;;16.75;10.02;;;;;;;-144.19;100.00;76020.22;5074489;28;20059;-86
2022/01/09 05:30:28;;;;;;;13.77;9.48;;;;;;;-144.19;100.00;76004.47;5074524;28;20054;-85
2022/01/09 05:32:55;;;;;;;14.20;9.63;;;;;;;-144.19;100.00;75990.72;5073788;28;20052;-87
2022/01/09 05:35:22;;;;;;;12.65;9.35;;;;;;;-144.19;100.00;75982.84;5093860;28;20316;-87
2022/01/09 05:37:49;;;;;;;12.43;8.63;;;;;;;-144.19;100.00;75988.75;5074870;28;20055;-87
2022/01/09 05:40:15;;;;;;;16.70;11.50;;;;;;;-144.19;100.00;75976.94;5075085;28;20482;-86
2022/01/09 05:42:42;;;;;;;14.53;10.20;;;;;;;-144.19;100.00;75982.84;5074054;28;20274;-86
2022/01/09 05:45:09;;;;;;;20.50;13.03;;;;;;;-144.19;100.00;75974.97;5093240;28;20474;-87
2022/01/09 05:47:35;;;;;;;15.25;11.18;;;;;;;-144.19;100.00;75984.81;5074300;28;20643;-88
2022/01/09 05:50:03;;;;;;;13.70;9.25;;;;;;;-144.19;100.00;76000.53;5075046;28;20051;-86
2022/01/09 05:52:29;;;;;;;15.02;10.43;;;;;;;-144.19;100.00;76000.53;5093365;28;20510;-87
2022/01/09 05:54:56;;;;;;;14.90;9.80;;;;;;;-144.19;100.00;75996.63;5076763;28;20052;-85
2022/01/09 05:57:22;;;;;;;15.35;11.05;;;;;;;-144.19;100.00;76012.34;5075338;28;20040;-86
2022/01/09 05:59:48;;;;;;;15.30;10.43;;;;;;;-144.19;100.00;76024.16;5092005;28;20040;-86
2022/01/09 06:02:15;;;;;;;16.20;9.97;;;;;;;-144.19;100.00;76024.16;5092521;28;20044;-85
2022/01/09 06:04:42;;;;;;;15.27;9.88;;;;;;;-144.19;100.00;76020.22;5074365;28;20385;-86
2022/01/09 06:07:10;;;;;;;14.30;10.15;;;;;;;-144.19;100.00;76043.84;5092470;28;20113;-85
2022/01/09 06:09:36;;;;;;;15.45;9.98;;;;;;;-144.19;100.00;76049.75;5074704;28;20413;-87
2022/01/09 06:12:03;;;;;;;16.63;12.10;;;;;;;-144.19;100.00;76037.94;5074998;28;20059;-89
2022/01/09 06:14:29;;;;;;;17.08;11.40;;;;;;;-144.19;100.00;76037.94;5093747;28;20052;-85
2022/01/09 06:16:56;;;;;;;17.57;11.80;;;;;;;-144.19;100.00;76024.16;5094199;28;20048;-85
2022/01/09 06:19:22;;;;;;;19.45;12.48;;;;;;;-144.19;100.00;76016.28;5094314;28;20290;-85
2022/01/09 06:21:48;;;;;;;21.63;12.48;;;;;;;-144.19;100.00;76024.16;5093166;28;20245;-86
2022/01/09 06:24:15;;;;;;;20.53;12.40;;;;;;;-144.19;100.00;76012.34;5075813;28;20055;-88
2022/01/09 06:26:41;;;;;;;24.27;14.13;;;;;;;-144.19;100.00;75980.88;5077970;28;20048;-86
2022/01/09 06:29:08;;;;;;;23.70;13.93;;;;;;;-144.19;100.00;75996.63;5093853;28;20140;-86
2022/01/09 06:31:34;;;;;;;26.87;13.97;;;;;;;-144.19;100.00;75992.69;5055422;28;20089;-85
2022/01/09 06:34:00;;;;;;;21.80;13.20;;;;;;;-144.19;100.00;75976.94;5055818;28;20497;-87
2022/01/09 06:36:27;;;;;;;22.90;13.30;;;;;;;-144.19;100.00;75976.94;5058148;28;20060;-85
2022/01/09 06:38:53;;;;;;;25.40;12.80;;;;;;;-144.19;100.00;75988.75;5054696;28;20053;-86
2022/01/09 06:41:19;;;;;;;20.42;12.65;;;;;;;-144.19;100.00;75988.75;5054330;28;20293;-87
2022/01/09 06:43:46;;;;;;;23.80;13.43;;;;;;;-144.19;100.00;75984.81;5072970;28;20048;-87
2022/01/09 06:46:12;;;;;;;29.20;12.43;;;;;;;-144.19;100.00;75961.19;5058377;28;20442;-85
2022/01/09 06:48:39;;;;;;;28.90;11.90;;;;;;;-144.19;100.00;75973.00;5054490;28;20059;-86
2022/01/09 06:51:05;;;;;;;36.03;12.73;;;;;;;-144.19;100.00;75961.19;5055622;28;20048;-87
2022/01/09 06:53:32;;;;;;;26.63;10.00;;;;;;;-144.19;100.00;75949.38;5072487;28;20057;-86
2022/01/09 06:55:58;;;;;;;32.30;8.65;;;;;;;-144.19;100.00;75927.72;5055420;28;20049;-86
2022/01/09 06:58:24;;;;;;;32.33;6.73;;;;;;;-144.19;100.00;75917.88;5055877;28;20411;-85
2022/01/09 07:00:52;;;;;;;31.13;5.60;;;;;;;-144.19;100.00;75894.28;5095336;28;20062;-85
2022/01/09 07:03:19;;;;;;;32.20;6.30;;;;;;;-144.19;100.00;75886.41;5075565;28;20209;-86
2022/01/09 07:05:45;;;;;;;36.08;5.90;;;;;;;-144.19;100.00;75888.38;5093135;28;20052;-87
2022/01/09 07:08:12;;;;;;;22.85;4.75;;;;;;;-144.19;100.00;75898.22;5073714;28;20048;-88
2022/01/09 07:10:38;;;;;;;31.00;4.55;;;;;;;-144.19;100.00;75886.41;5079272;28;20135;-86
2022/01/09 07:13:05;;;;;;;29.37;5.90;;;;;;;-144.19;100.00;75886.41;5095538;28;20052;-88
2022/01/09 07:15:31;;;;;;;23.02;4.22;;;;;;;-144.19;100.00;75896.25;5079471;28;20052;-85
2022/01/09 07:17:58;;;;;;;28.52;5.53;;;;;;;-144.19;100.00;75894.28;5077720;28;20058;-85
2022/01/09 07:20:24;;;;;;;37.57;5.17;;;;;;;-144.19;100.00;75898.22;5096198;28;20048;-88
2022/01/09 07:22:51;;;;;;;21.70;5.93;;;;;;;-144.19;100.00;75902.16;5078141;28;20044;-87
2022/01/09 07:25:17;;;;;;;18.90;4.93;;;;;;;-144.19;100.00;75906.06;5076707;28;20453;-86
2022/01/09 07:27:43;;;;;;;25.63;5.27;;;;;;;-144.19;100.00;75913.94;5077497;28;20052;-88
2022/01/09 07:30:10;;;;;;;20.40;4.95;;;;;;;-144.19;100.00;75917.88;5076531;28;20804;-86
2022/01/09 07:32:37;;;;;;;20.25;3.78;;;;;;;-144.19;100.00;75921.81;5077639;28;20059;-87
2022/01/09 07:35:04;;;;;;;;;;;;;;;-144.19;100.00;75931.66;5078296;28;20052;-85
2022/01/09 07:37:30;;;;;;;18.58;4.43;;;;;;;-144.19;100.00;75933.63;5095112;28;19920;-84
2022/01/09 07:39:58;;;;;;;20.83;3.67;;;;;;;-144.19;100.00;75937.56;5078411;28;20139;-87
2022/01/09 07:42:25;;;;;;;20.35;3.92;;;;;;;-144.19;100.00;75941.50;5078575;28;20282;-86
2022/01/09 07:44:51;;;;;;;27.00;4.05;;;;;;;-144.19;100.00;75957.25;5078099;28;20050;-87
2022/01/09 07:47:18;;;;;;;23.45;4.53;;;;;;;-144.19;100.00;75951.34;5080027;28;20419;-86
2022/01/09 07:49:44;;;;;;;27.60;4.93;;;;;;;-144.19;100.00;75965.13;5097157;28;20052;-85
2022/01/09 07:52:11;;;;;;;30.98;5.13;;;;;;;-144.19;100.00;75959.22;5080727;28;20356;-87
2022/01/09 07:54:37;;;;;;;21.83;3.70;;;;;;;-144.19;100.00;75961.19;5080600;28;20473;-87
2022/01/09 07:57:04;;;;;;;26.48;4.30;;;;;;;-144.19;100.00;75961.19;5096307;28;20058;-86
2022/01/09 07:59:31;;;;;;;17.17;4.13;;;;;;;-144.19;100.00;75969.06;5098379;28;20054;-87
2022/01/09 08:01:57;;;;;;;25.15;4.53;;;;;;;-144.19;100.00;75976.94;5079371;28;20048;-86
2022/01/09 08:04:26;;;;;;;22.80;5.23;;;;;;;-144.19;100.00;75974.97;5093791;22;20052;-90
2022/01/09 08:06:59;;;;;;;22.25;5.30;;;;;;;-144.19;100.00;75980.88;5074136;28;20048;-91
2022/01/09 08:09:26;;;;;;;23.50;4.65;;;;;;;-144.19;100.00;75996.63;5073522;28;20052;-90
2022/01/09 08:11:53;;;;;;;25.02;4.35;;;;;;;-144.19;100.00;75990.72;5074603;28;20090;-91
2022/01/09 08:14:22;;;;;;;20.27;3.58;;;;;;;-144.19;100.00;76008.41;5058507;28;20049;-90
2022/01/09 08:16:48;;;;;;;17.73;2.93;;;;;;;-144.19;100.00;76000.53;5052325;28;20055;-90
2022/01/09 08:19:15;;;;;;;17.00;3.97;;;;;;;-144.19;100.00;76006.44;5052176;28;20057;-91
2022/01/09 08:21:56;;;;;;;;;;;;;;;;;;;;;
2022/01/09 08:24:37;;;;;;;16.02;3.80;;;;;;;-144.19;100.00;76035.97;5053255;28;20302;-92
2022/01/09 08:27:10;;;;;;;17.58;2.60;;;;;;;-144.19;100.00;76035.97;5053209;28;20433;-91
2022/01/09 08:29:37;;;;;;;18.02;2.78;;;;;;;-144.19;100.00;76034.00;5052283;28;20044;-90
2022/01/09 08:32:13;;;;;;;11.27;2.65;;;;;;;-144.19;100.00;76051.72;5051247;28;20073;-90
2022/01/09 08:34:41;;;;;;;11.05;2.90;;;;;;;-144.19;100.00;76045.81;5052832;28;20495;-91
2022/01/09 08:37:12;;;;;;;18.02;3.10;;;;;;;-144.19;100.00;76055.66;5051508;28;20060;-91
2022/01/09 08:39:42;;;;;;;7.70;1.98;;;;;;;-144.19;100.00;76043.84;5052315;28;20049;-91
2022/01/09 08:42:09;;;;;;;14.57;3.13;;;;;;;-144.19;100.00;76051.72;5051672;28;20045;-91
2022/01/09 08:44:36;;;;;;;17.23;2.58;;;;;;;-144.19;100.00;76059.59;5051509;28;20048;-90
2022/01/09 08:47:05;;;;;;;9.70;2.03;;;;;;;-144.19;100.00;76067.47;5051351;28;20049;-90
2022/01/09 08:49:31;;;;;;;10.70;2.45;;;;;;;-144.19;100.00;76071.41;5052303;28;20490;-91
2022/01/09 08:51:58;;;;;;;6.67;2.20;;;;;;;-144.19;100.00;76079.28;5052607;28;20053;-91
2022/01/09 08:54:25;;;;;;;9.70;2.63;;;;;;;-144.19;100.00;76069.44;5051149;28;20649;-91
2022/01/09 08:56:52;;;;;;;9.43;2.30;;;;;;;-144.19;100.00;76089.13;5035412;28;20105;-91
2022/01/09 08:59:19;;;;;;;10.52;2.63;;;;;;;-144.19;100.00;76079.28;5031298;28;20056;-91
2022/01/09 09:01:47;;;;;;;13.13;2.42;;;;;;;-144.19;100.00;76091.09;5044321;28;20106;-91
2022/01/09 09:04:33;;;;;;;12.02;2.67;;;;;;;-144.19;100.00;76091.09;5051071;28;20049;-90
2022/01/09 09:07:23;;;;;;;16.95;2.90;;;;;;;-144.19;100.00;76083.22;5050943;28;20072;-90
2022/01/09 09:10:03;;;;;;;10.02;2.10;;;;;;;-144.19;100.00;76087.16;5051168;28;20064;-91
2022/01/09 09:12:31;;;;;;;10.57;2.40;;;;;;;-144.19;100.00;76095.03;5050229;28;20165;-90
2022/01/09 09:14:59;;;;;;;10.98;2.30;;;;;;;-144.19;100.00;76098.97;5050658;28;20061;-91
2022/01/09 09:17:27;;;;;;;11.73;2.85;;;;;;;-144.19;100.00;76106.81;5050948;28;20048;-90
2022/01/09 09:19:54;;;;;;;16.48;3.88;;;;;;;-144.19;100.00;76097.00;5051846;28;20147;-90
2022/01/09 09:22:29;;;;;;;14.07;1.90;;;;;;;-144.19;100.00;76093.06;5052134;28;20041;-90
2022/01/09 09:24:58;;;;;;;14.98;2.10;;;;;;;-144.19;100.00;76114.69;5049974;28;20517;-91
2022/01/09 09:27:30;;;;;;;9.33;2.17;;;;;;;-144.19;100.00;76128.47;5049927;28;20123;-90
2022/01/09 09:30:02;;;;;;;10.40;2.50;;;;;;;-144.19;100.00;76114.69;5050403;28;20470;-90
2022/01/09 09:32:30;;;;;;;11.40;2.03;;;;;;;-144.19;100.00;76126.50;5049151;28;20053;-91
2022/01/09 09:34:57;;;;;;;11.38;2.05;;;;;;;-144.19;100.00;76130.44;5050219;28;20134;-90
2022/01/09 09:37:26;;;;;;;12.20;1.98;;;;;;;-144.19;100.00;76130.44;5050240;28;20063;-90
2022/01/09 09:39:52;;;;;;;18.75;2.63;;;;;;;-144.19;100.00;76120.59;5051391;28;20095;-91
2022/01/09 09:42:19;;;;;;;12.50;2.53;;;;;;;-144.19;100.00;76126.50;5049793;28;20052;-89
2022/01/09 09:44:46;;;;;;;11.80;2.35;;;;;;;-144.19;100.00;76144.22;5049802;28;20085;-91
2022/01/09 09:47:19;;;;;;;6.35;1.77;;;;;;;-144.19;100.00;76152.09;5051556;28;20056;-91
2022/01/09 09:49:47;;;;;;;12.38;2.25;;;;;;;-144.19;100.00;76154.06;5050550;28;20171;-90
2022/01/09 09:52:18;;;;;;;11.23;2.33;;;;;;;-144.19;100.00;76152.09;5049539;28;20045;-90
2022/01/09 09:54:50;;;;;;;9.23;2.15;;;;;;;-144.19;100.00;76154.06;5049958;28;20079;-90
2022/01/09 09:57:17;;;;;;;15.10;2.70;;;;;;;-144.19;100.00;76154.06;5037802;28;20049;-90
2022/01/09 09:59:44;;;;;;;15.48;3.80;;;;;;;-144.19;100.00;76154.06;5050078;28;20048;-90
2022/01/09 10:02:13;;;;;;;16.08;2.85;;;;;;;-144.19;100.00;76161.94;5050072;28;20049;-90
2022/01/09 10:05:01;;;;;;;18.58;3.45;;;;;;;-144.19;100.00;76161.94;5050741;28;20072;-90
2022/01/09 10:07:28;;;;;;;15.73;2.35;;;;;;;-144.19;100.00;76158.00;5050785;28;20059;-89
2022/01/09 10:09:58;;;;;;;17.50;2.45;;;;;;;-144.19;100.00;76161.94;5050998;28;20053;-90
2022/01/09 10:12:31;;;;;;;14.95;2.63;;;;;;;-144.19;100.00;76181.63;5048738;28;20065;-90
2022/01/09 10:15:00;;;;;;;9.18;2.15;;;;;;;-144.19;100.00;76159.97;5049478;28;20136;-90
2022/01/09 10:17:27;;;;;;;15.27;3.00;;;;;;;-144.19;100.00;76173.75;5049538;28;20068;-90
2022/01/09 10:19:55;;;;;;;14.75;3.20;;;;;;;-144.19;100.00;76183.59;5051705;28;20484;-91
2022/01/09 10:22:36;;;;;;;16.88;3.53;;;;;;;-144.19;100.00;76169.81;5051496;28;20049;-90
2022/01/09 10:25:27;;;;;;;23.88;4.05;;;;;;;-144.19;100.00;76163.91;5050322;28;20048;-90
2022/01/09 10:28:14;;;;;;;16.25;3.03;;;;;;;-144.19;100.00;76185.56;5049349;28;20052;-90
2022/01/09 10:30:43;;;;;;;7.60;3.15;;;;;;;-144.19;100.00;76181.63;5050116;28;20059;-90
2022/01/09 10:33:13;;;;;;;10.73;2.78;;;;;;;-144.19;100.00;76181.63;5050594;28;20056;-90
2022/01/09 10:35:42;;;;;;;14.90;3.88;;;;;;;-144.19;100.00;76173.75;5051945;28;20045;-90
2022/01/09 10:38:16;;;;;;;15.95;3.78;;;;;;;-144.19;100.00;76181.63;5049696;28;20052;-90
2022/01/09 10:40:45;;;;;;;13.23;2.55;;;;;;;-144.19;100.00;76205.25;5050781;28;20059;-90
2022/01/09 10:43:22;;;;;;;15.73;3.28;;;;;;;-144.19;100.00;76213.13;5050057;28;20056;-91
2022/01/09 10:46:01;;;;;;;10.18;2.80;;;;;;;-144.19;100.00;76209.19;5054223;28;20466;-90
2022/01/09 10:48:40;;;;;;;15.18;4.32;;;;;;;-144.19;100.00;76217.03;5054969;28;20565;-90
2022/01/09 10:51:09;;;;;;;12.93;3.08;;;;;;;-144.19;100.00;76219.00;5053711;28;20049;-90
2022/01/09 10:53:37;;;;;;;11.48;3.15;;;;;;;-144.19;100.00;76236.72;5055122;28;20057;-90
2022/01/09 10:56:16;;;;;;;11.85;3.00;;;;;;;-144.19;100.00;76264.28;5044417;28;20054;-91
2022/01/09 10:59:00;;;;;;;;;;;;;;;;;;;;;
2022/01/09 11:01:31;;;;;;;13.57;3.78;;;;;;;-144.19;100.00;76262.31;5039914;28;20092;-91
2022/01/09 11:04:11;;;;;;;14.15;3.65;;;;;;;-144.19;100.00;76268.22;5054263;28;20087;-91
2022/01/09 11:06:40;;;;;;;16.98;3.67;;;;;;;-144.19;100.00;76264.28;5053075;28;20056;-90
2022/01/09 11:09:07;;;;;;;14.30;3.50;;;;;;;-144.19;100.00;76272.16;5052689;28;20076;-90
2022/01/09 11:11:39;;;;;;;15.00;4.28;;;;;;;-144.19;100.00;76252.47;5052959;28;20041;-90
2022/01/09 11:14:14;;;;;;;12.20;3.08;;;;;;;-144.19;100.00;76244.59;5052676;28;20056;-90